Crystal City, Virginia
Current Conditions -  °F | °C
As of 8:52 AM on Friday 24 Oct 2014 (Local Time) from KDCA Reporting Station
Scattered Clouds Scattered Clouds  
Wind Chill: 58°   Ceiling: Unl
Heat Index: 58°   Visibility: 10mi
Dew Point: 42°   Wind: 18mph
Humidity: 56%   Direction: 300°WNW
Pressure: 29.98"   Gusts: 26mph
Location:  38.8565°N, 77.0512°W
Report Text: KDCA 241252Z 30016G23KT 10SM FEW090 SCT250 14/06 A2998 RMK AO2 SLP153 ACSL W T01440056
Loading
Personal Weather Stations






























Interactive Weather Map
Tropical Storm Tracking
New forecast layout! Learn more

10-Day Weather Forecast

Advertisements
Track Severe Weather on mobile